sensor_id;sensor_type;location;lat;lon;timestamp;pressure;altitude;pressure_sealevel;temperature;humidity
47913;BME280;33676;51.006;17.180;2022-12-29T00:00:31;99952.98;;;6.71;94.36
47913;BME280;33676;51.006;17.180;2022-12-29T00:03:19;99952.72;;;6.70;94.30
47913;BME280;33676;51.006;17.180;2022-12-29T00:05:55;99965.66;;;6.71;94.27
47913;BME280;33676;51.006;17.180;2022-12-29T00:08:24;99970.48;;;6.74;94.39
47913;BME280;33676;51.006;17.180;2022-12-29T00:11:14;99962.91;;;6.80;94.43
47913;BME280;33676;51.006;17.180;2022-12-29T00:13:43;99955.67;;;6.85;94.32
47913;BME280;33676;51.006;17.180;2022-12-29T00:16:32;99955.50;;;6.90;94.09
47913;BME280;33676;51.006;17.180;2022-12-29T00:19:02;99957.59;;;6.92;94.15
47913;BME280;33676;51.006;17.180;2022-12-29T00:21:31;99953.96;;;6.94;94.07
47913;BME280;33676;51.006;17.180;2022-12-29T00:24:20;99948.17;;;6.95;93.94
47913;BME280;33676;51.006;17.180;2022-12-29T00:27:11;99946.71;;;6.94;93.92
47913;BME280;33676;51.006;17.180;2022-12-29T00:29:58;99952.94;;;6.91;93.82
47913;BME280;33676;51.006;17.180;2022-12-29T00:32:45;99957.64;;;6.89;93.90
47913;BME280;33676;51.006;17.180;2022-12-29T00:35:39;99946.30;;;6.87;93.89
47913;BME280;33676;51.006;17.180;2022-12-29T00:38:10;99939.48;;;6.85;93.97
47913;BME280;33676;51.006;17.180;2022-12-29T00:40:58;99934.88;;;6.84;93.91
47913;BME280;33676;51.006;17.180;2022-12-29T00:43:45;99935.31;;;6.82;93.95
47913;BME280;33676;51.006;17.180;2022-12-29T00:46:34;99937.11;;;6.82;93.92
47913;BME280;33676;51.006;17.180;2022-12-29T00:49:04;99934.94;;;6.80;93.82
47913;BME280;33676;51.006;17.180;2022-12-29T00:51:51;99926.24;;;6.78;93.78
47913;BME280;33676;51.006;17.180;2022-12-29T00:54:21;99923.85;;;6.75;93.71
47913;BME280;33676;51.006;17.180;2022-12-29T00:56:51;99920.06;;;6.72;93.69
47913;BME280;33676;51.006;17.180;2022-12-29T00:59:20;99916.85;;;6.69;93.62
47913;BME280;33676;51.006;17.180;2022-12-29T01:01:49;99914.47;;;6.65;93.64
47913;BME280;33676;51.006;17.180;2022-12-29T01:04:23;99906.30;;;6.62;93.76
47913;BME280;33676;51.006;17.180;2022-12-29T01:06:52;99899.73;;;6.59;93.77
47913;BME280;33676;51.006;17.180;2022-12-29T01:09:20;99901.18;;;6.56;93.67
47913;BME280;33676;51.006;17.180;2022-12-29T01:12:09;99895.89;;;6.52;93.84
47913;BME280;33676;51.006;17.180;2022-12-29T01:14:38;99888.91;;;6.50;93.99
47913;BME280;33676;51.006;17.180;2022-12-29T01:17:06;99883.71;;;6.50;94.05
47913;BME280;33676;51.006;17.180;2022-12-29T01:19:35;99877.34;;;6.49;94.08
47913;BME280;33676;51.006;17.180;2022-12-29T01:22:03;99880.59;;;6.47;94.17
47913;BME280;33676;51.006;17.180;2022-12-29T01:24:32;99881.82;;;6.47;94.20
47913;BME280;33676;51.006;17.180;2022-12-29T01:27:00;99881.48;;;6.44;94.20
47913;BME280;33676;51.006;17.180;2022-12-29T01:29:28;99887.85;;;6.40;94.20
47913;BME280;33676;51.006;17.180;2022-12-29T01:31:56;99887.88;;;6.34;94.25
47913;BME280;33676;51.006;17.180;2022-12-29T01:34:25;99883.09;;;6.31;94.37
47913;BME280;33676;51.006;17.180;2022-12-29T01:36:53;99877.56;;;6.27;94.54
47913;BME280;33676;51.006;17.180;2022-12-29T01:39:22;99869.95;;;6.25;94.62
47913;BME280;33676;51.006;17.180;2022-12-29T01:41:50;99866.75;;;6.21;94.67
47913;BME280;33676;51.006;17.180;2022-12-29T01:44:57;99866.98;;;6.17;94.87
47913;BME280;33676;51.006;17.180;2022-12-29T01:47:38;99865.15;;;6.14;95.03
47913;BME280;33676;51.006;17.180;2022-12-29T01:50:14;99872.25;;;6.11;95.19
47913;BME280;33676;51.006;17.180;2022-12-29T01:53:09;99864.91;;;6.10;95.22
47913;BME280;33676;51.006;17.180;2022-12-29T01:55:44;99862.78;;;6.08;95.27
47913;BME280;33676;51.006;17.180;2022-12-29T01:58:15;99860.45;;;6.06;95.37
47913;BME280;33676;51.006;17.180;2022-12-29T02:00:46;99848.41;;;6.07;95.47
47913;BME280;33676;51.006;17.180;2022-12-29T02:03:16;99847.05;;;6.10;95.48
47913;BME280;33676;51.006;17.180;2022-12-29T02:06:05;99850.52;;;6.14;95.53
47913;BME280;33676;51.006;17.180;2022-12-29T02:08:38;99840.76;;;6.20;95.61
47913;BME280;33676;51.006;17.180;2022-12-29T02:11:07;99837.78;;;6.25;95.52
47913;BME280;33676;51.006;17.180;2022-12-29T02:13:35;99836.53;;;6.31;95.37
47913;BME280;33676;51.006;17.180;2022-12-29T02:16:21;99837.52;;;6.37;95.27
47913;BME280;33676;51.006;17.180;2022-12-29T02:19:48;99836.98;;;6.40;94.99
47913;BME280;33676;51.006;17.180;2022-12-29T02:22:34;99835.14;;;6.39;94.78
47913;BME280;33676;51.006;17.180;2022-12-29T02:31:58;99825.55;;;6.29;94.45
47913;BME280;33676;51.006;17.180;2022-12-29T02:43:26;99820.74;;;6.31;94.24
47913;BME280;33676;51.006;17.180;2022-12-29T02:46:15;99820.35;;;6.32;94.24
47913;BME280;33676;51.006;17.180;2022-12-29T02:48:55;99817.18;;;6.33;94.04
47913;BME280;33676;51.006;17.180;2022-12-29T02:51:59;99820.09;;;6.33;93.86
47913;BME280;33676;51.006;17.180;2022-12-29T02:54:29;99814.89;;;6.33;93.73
47913;BME280;33676;51.006;17.180;2022-12-29T02:57:33;99811.29;;;6.32;93.47
47913;BME280;33676;51.006;17.180;2022-12-29T03:00:14;99811.38;;;6.31;93.41
47913;BME280;33676;51.006;17.180;2022-12-29T03:06:08;99807.88;;;6.29;93.20
47913;BME280;33676;51.006;17.180;2022-12-29T03:09:19;99806.38;;;6.28;93.16
47913;BME280;33676;51.006;17.180;2022-12-29T03:12:07;99800.54;;;6.27;93.13
47913;BME280;33676;51.006;17.180;2022-12-29T03:15:01;99799.98;;;6.25;93.03
47913;BME280;33676;51.006;17.180;2022-12-29T03:18:01;99792.45;;;6.24;92.96
47913;BME280;33676;51.006;17.180;2022-12-29T03:20:47;99792.23;;;6.27;93.17
47913;BME280;33676;51.006;17.180;2022-12-29T03:23:18;99791.70;;;6.29;92.98
47913;BME280;33676;51.006;17.180;2022-12-29T03:25:51;99789.09;;;6.32;92.96
47913;BME280;33676;51.006;17.180;2022-12-29T03:28:25;99784.67;;;6.36;92.81
47913;BME280;33676;51.006;17.180;2022-12-29T03:30:57;99786.13;;;6.37;92.77
47913;BME280;33676;51.006;17.180;2022-12-29T03:33:28;99785.21;;;6.38;92.65
47913;BME280;33676;51.006;17.180;2022-12-29T03:36:03;99784.23;;;6.42;92.69
47913;BME280;33676;51.006;17.180;2022-12-29T03:38:51;99780.11;;;6.47;92.45
47913;BME280;33676;51.006;17.180;2022-12-29T03:41:26;99783.04;;;6.52;92.37
47913;BME280;33676;51.006;17.180;2022-12-29T03:43:56;99786.77;;;6.56;92.22
47913;BME280;33676;51.006;17.180;2022-12-29T03:46:25;99784.52;;;6.58;92.19
47913;BME280;33676;51.006;17.180;2022-12-29T03:48:53;99782.45;;;6.58;92.01
47913;BME280;33676;51.006;17.180;2022-12-29T03:51:22;99780.92;;;6.57;91.79
47913;BME280;33676;51.006;17.180;2022-12-29T03:53:50;99781.88;;;6.58;91.56
47913;BME280;33676;51.006;17.180;2022-12-29T03:56:18;99781.30;;;6.59;91.45
47913;BME280;33676;51.006;17.180;2022-12-29T03:58:47;99784.47;;;6.58;91.37
47913;BME280;33676;51.006;17.180;2022-12-29T04:01:15;99782.33;;;6.57;91.36
47913;BME280;33676;51.006;17.180;2022-12-29T04:03:45;99780.27;;;6.54;91.31
47913;BME280;33676;51.006;17.180;2022-12-29T04:06:14;99784.79;;;6.54;91.25
47913;BME280;33676;51.006;17.180;2022-12-29T04:08:42;99786.69;;;6.54;91.33
47913;BME280;33676;51.006;17.180;2022-12-29T04:11:10;99776.39;;;6.55;91.27
47913;BME280;33676;51.006;17.180;2022-12-29T04:13:39;99766.89;;;6.57;91.18
47913;BME280;33676;51.006;17.180;2022-12-29T04:16:09;99764.92;;;6.58;91.16
47913;BME280;33676;51.006;17.180;2022-12-29T04:18:37;99765.45;;;6.60;91.13
47913;BME280;33676;51.006;17.180;2022-12-29T04:21:06;99762.17;;;6.62;91.11
47913;BME280;33676;51.006;17.180;2022-12-29T04:23:37;99770.57;;;6.64;91.16
47913;BME280;33676;51.006;17.180;2022-12-29T04:26:07;99777.98;;;6.67;90.93
47913;BME280;33676;51.006;17.180;2022-12-29T04:28:37;99781.02;;;6.71;90.81
47913;BME280;33676;51.006;17.180;2022-12-29T04:31:05;99777.98;;;6.75;90.72
47913;BME280;33676;51.006;17.180;2022-12-29T04:33:34;99774.67;;;6.77;90.70
47913;BME280;33676;51.006;17.180;2022-12-29T04:36:03;99767.26;;;6.79;90.48
47913;BME280;33676;51.006;17.180;2022-12-29T04:38:31;99762.45;;;6.81;90.42
47913;BME280;33676;51.006;17.180;2022-12-29T04:41:00;99761.19;;;6.81;90.23
47913;BME280;33676;51.006;17.180;2022-12-29T04:43:29;99763.63;;;6.81;90.24
47913;BME280;33676;51.006;17.180;2022-12-29T04:45:57;99761.02;;;6.83;90.31
47913;BME280;33676;51.006;17.180;2022-12-29T04:48:26;99758.42;;;6.86;90.20
47913;BME280;33676;51.006;17.180;2022-12-29T04:50:54;99764.65;;;6.88;90.01
47913;BME280;33676;51.006;17.180;2022-12-29T04:53:23;99767.27;;;6.90;89.89
47913;BME280;33676;51.006;17.180;2022-12-29T04:55:52;99761.63;;;6.92;89.77
47913;BME280;33676;51.006;17.180;2022-12-29T04:58:21;99761.33;;;6.93;89.75
47913;BME280;33676;51.006;17.180;2022-12-29T05:00:51;99755.45;;;6.93;89.74
47913;BME280;33676;51.006;17.180;2022-12-29T05:03:19;99755.29;;;6.93;89.68
47913;BME280;33676;51.006;17.180;2022-12-29T05:05:48;99750.80;;;6.93;89.53
47913;BME280;33676;51.006;17.180;2022-12-29T05:08:16;99756.27;;;6.89;89.58
47913;BME280;33676;51.006;17.180;2022-12-29T05:10:51;99753.09;;;6.85;89.44
47913;BME280;33676;51.006;17.180;2022-12-29T05:13:20;99751.51;;;6.85;89.67
47913;BME280;33676;51.006;17.180;2022-12-29T05:15:52;99748.07;;;6.85;89.63
47913;BME280;33676;51.006;17.180;2022-12-29T05:18:21;99745.01;;;6.86;89.68
47913;BME280;33676;51.006;17.180;2022-12-29T05:20:49;99742.08;;;6.88;89.71
47913;BME280;33676;51.006;17.180;2022-12-29T05:23:18;99737.90;;;6.91;89.78
47913;BME280;33676;51.006;17.180;2022-12-29T05:25:46;99735.30;;;6.93;89.56
47913;BME280;33676;51.006;17.180;2022-12-29T05:28:15;99734.24;;;6.93;89.38
47913;BME280;33676;51.006;17.180;2022-12-29T05:30:49;99740.53;;;6.95;89.14
47913;BME280;33676;51.006;17.180;2022-12-29T05:33:19;99742.34;;;6.97;89.21
47913;BME280;33676;51.006;17.180;2022-12-29T05:35:47;99726.30;;;6.97;89.15
47913;BME280;33676;51.006;17.180;2022-12-29T05:38:16;99721.23;;;6.97;89.14
47913;BME280;33676;51.006;17.180;2022-12-29T05:40:45;99715.88;;;6.97;89.01
47913;BME280;33676;51.006;17.180;2022-12-29T05:43:14;99719.13;;;6.96;88.87
47913;BME280;33676;51.006;17.180;2022-12-29T05:45:42;99716.98;;;6.94;88.75
47913;BME280;33676;51.006;17.180;2022-12-29T05:48:11;99721.35;;;6.91;88.67
47913;BME280;33676;51.006;17.180;2022-12-29T05:50:40;99719.76;;;6.87;88.81
47913;BME280;33676;51.006;17.180;2022-12-29T05:53:08;99720.91;;;6.83;88.65
47913;BME280;33676;51.006;17.180;2022-12-29T05:55:37;99719.82;;;6.77;88.65
47913;BME280;33676;51.006;17.180;2022-12-29T05:58:16;99712.63;;;6.73;88.68
47913;BME280;33676;51.006;17.180;2022-12-29T06:00:45;99707.66;;;6.70;88.67
47913;BME280;33676;51.006;17.180;2022-12-29T06:03:13;99706.54;;;6.69;88.76
47913;BME280;33676;51.006;17.180;2022-12-29T06:05:44;99706.70;;;6.69;88.82
47913;BME280;33676;51.006;17.180;2022-12-29T06:08:13;99706.80;;;6.70;88.80
47913;BME280;33676;51.006;17.180;2022-12-29T06:10:41;99710.20;;;6.71;88.78
47913;BME280;33676;51.006;17.180;2022-12-29T06:13:10;99704.73;;;6.72;88.79
47913;BME280;33676;51.006;17.180;2022-12-29T06:15:38;99697.73;;;6.73;88.76
47913;BME280;33676;51.006;17.180;2022-12-29T06:18:06;99702.88;;;6.73;88.79
47913;BME280;33676;51.006;17.180;2022-12-29T06:20:35;99698.13;;;6.74;88.76
47913;BME280;33676;51.006;17.180;2022-12-29T06:23:03;99694.58;;;6.75;88.73
47913;BME280;33676;51.006;17.180;2022-12-29T06:25:32;99696.85;;;6.75;88.68
47913;BME280;33676;51.006;17.180;2022-12-29T06:28:03;99705.54;;;6.77;88.54
47913;BME280;33676;51.006;17.180;2022-12-29T06:30:32;99702.35;;;6.78;88.42
47913;BME280;33676;51.006;17.180;2022-12-29T06:33:00;99707.83;;;6.79;88.43
47913;BME280;33676;51.006;17.180;2022-12-29T06:35:29;99709.91;;;6.79;88.34
47913;BME280;33676;51.006;17.180;2022-12-29T06:37:57;99713.75;;;6.79;88.38
47913;BME280;33676;51.006;17.180;2022-12-29T06:40:26;99709.11;;;6.78;88.27
47913;BME280;33676;51.006;17.180;2022-12-29T06:42:54;99701.98;;;6.74;88.29
47913;BME280;33676;51.006;17.180;2022-12-29T06:45:22;99706.71;;;6.71;88.28
47913;BME280;33676;51.006;17.180;2022-12-29T06:47:51;99714.75;;;6.68;88.25
47913;BME280;33676;51.006;17.180;2022-12-29T06:50:19;99714.86;;;6.66;88.42
47913;BME280;33676;51.006;17.180;2022-12-29T06:52:48;99717.48;;;6.63;88.33
47913;BME280;33676;51.006;17.180;2022-12-29T06:55:16;99722.27;;;6.61;88.44
47913;BME280;33676;51.006;17.180;2022-12-29T06:57:45;99728.91;;;6.61;88.52
47913;BME280;33676;51.006;17.180;2022-12-29T07:00:13;99726.64;;;6.61;88.62
47913;BME280;33676;51.006;17.180;2022-12-29T07:02:49;99729.59;;;6.63;88.73
47913;BME280;33676;51.006;17.180;2022-12-29T07:05:18;99727.11;;;6.67;88.92
47913;BME280;33676;51.006;17.180;2022-12-29T07:07:47;99727.85;;;6.71;88.94
47913;BME280;33676;51.006;17.180;2022-12-29T07:10:15;99729.55;;;6.74;88.90
47913;BME280;33676;51.006;17.180;2022-12-29T07:12:44;99726.40;;;6.77;88.97
47913;BME280;33676;51.006;17.180;2022-12-29T07:15:12;99728.51;;;6.79;88.91
47913;BME280;33676;51.006;17.180;2022-12-29T07:17:41;99729.84;;;6.80;88.92
47913;BME280;33676;51.006;17.180;2022-12-29T07:20:09;99727.06;;;6.82;88.82
47913;BME280;33676;51.006;17.180;2022-12-29T07:22:38;99731.31;;;6.83;88.90
47913;BME280;33676;51.006;17.180;2022-12-29T07:25:07;99732.59;;;6.85;88.92
47913;BME280;33676;51.006;17.180;2022-12-29T07:27:36;99734.08;;;6.86;88.89
47913;BME280;33676;51.006;17.180;2022-12-29T07:30:05;99737.24;;;6.88;89.06
47913;BME280;33676;51.006;17.180;2022-12-29T07:32:34;99737.06;;;6.93;89.01
47913;BME280;33676;51.006;17.180;2022-12-29T07:35:02;99728.23;;;6.94;88.93
47913;BME280;33676;51.006;17.180;2022-12-29T07:37:31;99727.65;;;6.96;88.76
47913;BME280;33676;51.006;17.180;2022-12-29T07:40:02;99729.41;;;6.98;88.86
47913;BME280;33676;51.006;17.180;2022-12-29T07:42:31;99727.98;;;7.01;88.91
47913;BME280;33676;51.006;17.180;2022-12-29T07:45:00;99730.45;;;7.03;88.94
47913;BME280;33676;51.006;17.180;2022-12-29T07:47:28;99729.66;;;7.04;88.76
47913;BME280;33676;51.006;17.180;2022-12-29T07:49:56;99727.76;;;7.06;88.91
47913;BME280;33676;51.006;17.180;2022-12-29T07:52:25;99723.62;;;7.08;88.88
47913;BME280;33676;51.006;17.180;2022-12-29T07:54:53;99724.27;;;7.11;89.02
47913;BME280;33676;51.006;17.180;2022-12-29T07:57:21;99721.59;;;7.15;89.09
47913;BME280;33676;51.006;17.180;2022-12-29T07:59:58;99719.44;;;7.18;89.07
47913;BME280;33676;51.006;17.180;2022-12-29T08:02:27;99724.80;;;7.23;89.26
47913;BME280;33676;51.006;17.180;2022-12-29T08:04:55;99718.20;;;7.30;89.20
47913;BME280;33676;51.006;17.180;2022-12-29T08:07:24;99717.30;;;7.37;89.24
47913;BME280;33676;51.006;17.180;2022-12-29T08:09:52;99714.14;;;7.45;89.34
47913;BME280;33676;51.006;17.180;2022-12-29T08:12:21;99718.29;;;7.52;89.13
47913;BME280;33676;51.006;17.180;2022-12-29T08:14:49;99725.15;;;7.60;89.15
47913;BME280;33676;51.006;17.180;2022-12-29T08:17:18;99728.55;;;7.69;89.13
47913;BME280;33676;51.006;17.180;2022-12-29T08:19:46;99727.66;;;7.73;89.09
47913;BME280;33676;51.006;17.180;2022-12-29T08:22:14;99729.86;;;7.79;88.99
47913;BME280;33676;51.006;17.180;2022-12-29T08:24:43;99735.91;;;7.84;88.89
47913;BME280;33676;51.006;17.180;2022-12-29T08:27:11;99736.88;;;7.89;88.90
47913;BME280;33676;51.006;17.180;2022-12-29T08:29:48;99732.90;;;7.95;88.63
47913;BME280;33676;51.006;17.180;2022-12-29T08:32:17;99734.65;;;8.00;88.40
47913;BME280;33676;51.006;17.180;2022-12-29T08:34:45;99738.08;;;8.06;88.40
47913;BME280;33676;51.006;17.180;2022-12-29T08:37:13;99737.98;;;8.11;88.37
47913;BME280;33676;51.006;17.180;2022-12-29T08:39:42;99744.02;;;8.19;88.39
47913;BME280;33676;51.006;17.180;2022-12-29T08:42:10;99742.76;;;8.26;88.28
47913;BME280;33676;51.006;17.180;2022-12-29T08:44:39;99739.58;;;8.34;87.98
47913;BME280;33676;51.006;17.180;2022-12-29T08:47:10;99733.48;;;8.40;88.00
47913;BME280;33676;51.006;17.180;2022-12-29T08:49:39;99731.94;;;8.47;87.88
47913;BME280;33676;51.006;17.180;2022-12-29T08:52:07;99736.35;;;8.52;87.81
47913;BME280;33676;51.006;17.180;2022-12-29T08:54:36;99736.62;;;8.58;87.58
47913;BME280;33676;51.006;17.180;2022-12-29T08:57:04;99737.58;;;8.64;87.50
47913;BME280;33676;51.006;17.180;2022-12-29T08:59:32;99736.09;;;8.70;87.55
47913;BME280;33676;51.006;17.180;2022-12-29T09:02:01;99735.68;;;8.75;87.31
47913;BME280;33676;51.006;17.180;2022-12-29T09:04:30;99739.52;;;8.79;87.40
47913;BME280;33676;51.006;17.180;2022-12-29T09:06:58;99734.27;;;8.86;87.52
47913;BME280;33676;51.006;17.180;2022-12-29T09:09:27;99734.60;;;8.92;87.44
47913;BME280;33676;51.006;17.180;2022-12-29T09:11:55;99735.48;;;8.97;87.27
47913;BME280;33676;51.006;17.180;2022-12-29T09:14:23;99741.43;;;9.01;87.22
47913;BME280;33676;51.006;17.180;2022-12-29T09:16:52;99737.50;;;9.06;87.05
47913;BME280;33676;51.006;17.180;2022-12-29T09:19:39;99738.29;;;9.13;87.21
47913;BME280;33676;51.006;17.180;2022-12-29T09:22:07;99737.77;;;9.20;87.06
47913;BME280;33676;51.006;17.180;2022-12-29T09:24:36;99742.65;;;9.26;87.01
47913;BME280;33676;51.006;17.180;2022-12-29T09:27:04;99741.18;;;9.32;87.01
47913;BME280;33676;51.006;17.180;2022-12-29T09:29:33;99741.73;;;9.36;86.77
47913;BME280;33676;51.006;17.180;2022-12-29T09:32:01;99735.16;;;9.41;87.19
47913;BME280;33676;51.006;17.180;2022-12-29T09:34:34;99733.48;;;9.46;86.99
47913;BME280;33676;51.006;17.180;2022-12-29T09:37:03;99724.43;;;9.51;86.89
47913;BME280;33676;51.006;17.180;2022-12-29T09:39:31;99722.23;;;9.52;86.54
47913;BME280;33676;51.006;17.180;2022-12-29T09:42:18;99728.05;;;9.53;86.47
47913;BME280;33676;51.006;17.180;2022-12-29T09:45:19;99739.56;;;9.57;86.67
47913;BME280;33676;51.006;17.180;2022-12-29T09:47:52;99739.88;;;9.67;86.83
47913;BME280;33676;51.006;17.180;2022-12-29T09:50:33;99731.99;;;9.73;86.73
47913;BME280;33676;51.006;17.180;2022-12-29T09:53:14;99730.55;;;9.80;86.88
47913;BME280;33676;51.006;17.180;2022-12-29T09:56:19;99735.91;;;9.88;87.00
47913;BME280;33676;51.006;17.180;2022-12-29T09:59:02;99730.45;;;9.99;86.90
47913;BME280;33676;51.006;17.180;2022-12-29T10:01:41;99723.15;;;10.05;86.49
47913;BME280;33676;51.006;17.180;2022-12-29T10:04:12;99720.23;;;10.09;86.82
47913;BME280;33676;51.006;17.180;2022-12-29T10:07:02;99718.73;;;10.14;86.85
47913;BME280;33676;51.006;17.180;2022-12-29T10:10:35;99711.42;;;10.16;86.69
47913;BME280;33676;51.006;17.180;2022-12-29T10:13:41;99703.17;;;10.18;86.47
47913;BME280;33676;51.006;17.180;2022-12-29T10:16:30;99696.04;;;10.20;86.65
47913;BME280;33676;51.006;17.180;2022-12-29T10:22:21;99687.35;;;10.18;85.93
47913;BME280;33676;51.006;17.180;2022-12-29T10:24:55;99678.88;;;10.16;85.94
47913;BME280;33676;51.006;17.180;2022-12-29T10:27:24;99678.56;;;10.20;85.96
47913;BME280;33676;51.006;17.180;2022-12-29T10:29:55;99681.14;;;10.27;85.90
47913;BME280;33676;51.006;17.180;2022-12-29T10:32:46;99679.62;;;10.33;85.75
47913;BME280;33676;51.006;17.180;2022-12-29T10:35:25;99682.61;;;10.37;85.78
47913;BME280;33676;51.006;17.180;2022-12-29T10:38:02;99688.13;;;10.41;85.91
47913;BME280;33676;51.006;17.180;2022-12-29T10:40:40;99688.77;;;10.44;85.42
47913;BME280;33676;51.006;17.180;2022-12-29T10:43:34;99691.95;;;10.43;85.09
47913;BME280;33676;51.006;17.180;2022-12-29T10:46:10;99693.39;;;10.43;84.82
47913;BME280;33676;51.006;17.180;2022-12-29T10:48:40;99691.50;;;10.48;85.21
47913;BME280;33676;51.006;17.180;2022-12-29T10:51:36;99688.61;;;10.55;85.06
47913;BME280;33676;51.006;17.180;2022-12-29T10:54:21;99684.43;;;10.63;85.10
47913;BME280;33676;51.006;17.180;2022-12-29T10:56:56;99682.69;;;10.71;84.96
47913;BME280;33676;51.006;17.180;2022-12-29T10:59:34;99683.06;;;10.75;84.62
47913;BME280;33676;51.006;17.180;2022-12-29T11:07:31;99675.78;;;10.96;84.84
47913;BME280;33676;51.006;17.180;2022-12-29T11:10:37;99670.43;;;11.04;84.68
47913;BME280;33676;51.006;17.180;2022-12-29T11:13:20;99672.70;;;11.14;84.37
47913;BME280;33676;51.006;17.180;2022-12-29T11:15:52;99669.45;;;11.21;84.33
47913;BME280;33676;51.006;17.180;2022-12-29T11:24:03;99660.95;;;11.32;84.06
47913;BME280;33676;51.006;17.180;2022-12-29T11:26:33;99659.17;;;11.34;84.02
47913;BME280;33676;51.006;17.180;2022-12-29T11:31:45;99655.80;;;11.35;83.77
47913;BME280;33676;51.006;17.180;2022-12-29T11:34:24;99656.00;;;11.33;83.75
47913;BME280;33676;51.006;17.180;2022-12-29T11:37:00;99656.23;;;11.34;84.12
47913;BME280;33676;51.006;17.180;2022-12-29T11:42:03;99649.20;;;11.36;84.41
47913;BME280;33676;51.006;17.180;2022-12-29T11:44:37;99649.84;;;11.39;84.60
47913;BME280;33676;51.006;17.180;2022-12-29T11:47:26;99645.25;;;11.39;84.67
47913;BME280;33676;51.006;17.180;2022-12-29T11:50:03;99639.86;;;11.39;84.54
47913;BME280;33676;51.006;17.180;2022-12-29T11:52:36;99643.00;;;11.39;84.79
47913;BME280;33676;51.006;17.180;2022-12-29T11:55:18;99642.27;;;11.39;84.81
47913;BME280;33676;51.006;17.180;2022-12-29T11:57:50;99641.96;;;11.37;85.05
47913;BME280;33676;51.006;17.180;2022-12-29T12:00:21;99638.59;;;11.35;85.05
47913;BME280;33676;51.006;17.180;2022-12-29T12:03:21;99640.17;;;11.36;84.98
47913;BME280;33676;51.006;17.180;2022-12-29T12:06:02;99640.44;;;11.36;84.97
47913;BME280;33676;51.006;17.180;2022-12-29T12:11:42;99644.58;;;11.43;85.52
47913;BME280;33676;51.006;17.180;2022-12-29T12:14:41;99641.15;;;11.45;85.65
47913;BME280;33676;51.006;17.180;2022-12-29T12:17:27;99635.53;;;11.47;85.83
47913;BME280;33676;51.006;17.180;2022-12-29T12:22:54;99628.65;;;11.39;85.39
47913;BME280;33676;51.006;17.180;2022-12-29T12:25:37;99628.88;;;11.29;85.09
47913;BME280;33676;51.006;17.180;2022-12-29T12:28:20;99628.13;;;11.18;84.82
47913;BME280;33676;51.006;17.180;2022-12-29T12:30:55;99624.78;;;11.03;84.77
47913;BME280;33676;51.006;17.180;2022-12-29T12:33:36;99614.84;;;10.87;84.71
47913;BME280;33676;51.006;17.180;2022-12-29T12:36:35;99607.73;;;10.71;84.72
47913;BME280;33676;51.006;17.180;2022-12-29T12:39:32;99612.89;;;10.56;85.04
47913;BME280;33676;51.006;17.180;2022-12-29T12:51:05;99625.15;;;10.28;85.90
47913;BME280;33676;51.006;17.180;2022-12-29T12:54:05;99622.98;;;10.25;86.03
47913;BME280;33676;51.006;17.180;2022-12-29T12:57:27;99624.05;;;10.21;86.37
47913;BME280;33676;51.006;17.180;2022-12-29T13:03:13;99622.55;;;10.18;86.79
47913;BME280;33676;51.006;17.180;2022-12-29T13:11:55;99634.79;;;10.22;87.25
47913;BME280;33676;51.006;17.180;2022-12-29T13:17:49;99635.12;;;10.24;87.27
47913;BME280;33676;51.006;17.180;2022-12-29T13:20:35;99636.18;;;10.26;87.44
47913;BME280;33676;51.006;17.180;2022-12-29T13:23:14;99640.44;;;10.29;87.39
47913;BME280;33676;51.006;17.180;2022-12-29T13:26:18;99642.27;;;10.32;87.37
47913;BME280;33676;51.006;17.180;2022-12-29T13:29:03;99648.07;;;10.36;87.39
47913;BME280;33676;51.006;17.180;2022-12-29T13:34:43;99648.78;;;10.43;87.64
47913;BME280;33676;51.006;17.180;2022-12-29T13:37:18;99655.69;;;10.46;87.65
47913;BME280;33676;51.006;17.180;2022-12-29T13:39:56;99650.83;;;10.46;87.25
47913;BME280;33676;51.006;17.180;2022-12-29T13:42:26;99650.73;;;10.45;87.20
47913;BME280;33676;51.006;17.180;2022-12-29T13:45:06;99655.35;;;10.44;86.85
47913;BME280;33676;51.006;17.180;2022-12-29T13:47:46;99658.27;;;10.39;86.59
47913;BME280;33676;51.006;17.180;2022-12-29T13:50:23;99669.08;;;10.38;86.85
47913;BME280;33676;51.006;17.180;2022-12-29T13:53:49;99669.38;;;10.38;86.60
47913;BME280;33676;51.006;17.180;2022-12-29T13:56:49;99674.23;;;10.38;86.31
47913;BME280;33676;51.006;17.180;2022-12-29T13:59:43;99682.28;;;10.38;86.01
47913;BME280;33676;51.006;17.180;2022-12-29T14:02:31;99685.19;;;10.33;85.68
47913;BME280;33676;51.006;17.180;2022-12-29T14:07:48;99685.23;;;10.14;85.42
47913;BME280;33676;51.006;17.180;2022-12-29T14:10:36;99679.48;;;10.04;85.28
47913;BME280;33676;51.006;17.180;2022-12-29T14:13:14;99679.80;;;9.93;85.42
47913;BME280;33676;51.006;17.180;2022-12-29T14:15:47;99680.12;;;9.87;85.45
47913;BME280;33676;51.006;17.180;2022-12-29T14:18:25;99680.67;;;9.81;85.41
47913;BME280;33676;51.006;17.180;2022-12-29T14:23:45;99681.03;;;9.71;85.57
47913;BME280;33676;51.006;17.180;2022-12-29T14:34:58;99682.87;;;9.45;85.46
47913;BME280;33676;51.006;17.180;2022-12-29T14:37:30;99680.19;;;9.37;85.35
47913;BME280;33676;51.006;17.180;2022-12-29T14:40:23;99677.73;;;9.29;85.28
47913;BME280;33676;51.006;17.180;2022-12-29T14:42:56;99677.58;;;9.20;85.25
47913;BME280;33676;51.006;17.180;2022-12-29T14:45:29;99676.69;;;9.12;85.49
47913;BME280;33676;51.006;17.180;2022-12-29T14:48:00;99681.15;;;9.04;85.42
47913;BME280;33676;51.006;17.180;2022-12-29T14:50:43;99687.39;;;8.96;85.35
47913;BME280;33676;51.006;17.180;2022-12-29T14:53:49;99687.65;;;8.89;85.57
47913;BME280;33676;51.006;17.180;2022-12-29T14:56:25;99687.88;;;8.80;85.51
47913;BME280;33676;51.006;17.180;2022-12-29T14:59:02;99689.08;;;8.73;85.52
47913;BME280;33676;51.006;17.180;2022-12-29T15:04:25;99697.58;;;8.60;85.62
47913;BME280;33676;51.006;17.180;2022-12-29T15:06:55;99694.39;;;8.55;85.70